^^
Saratoga-Weather Station Historical Data
Daily Summary for January 15, 2022 Units:  English    Metric   Both
Daily Weekly Monthly Yearly Custom
  High: Low: Average:
Temperature: 32.4 °F 26.8 °F 30.4 °F
Dew Point: 31.6 °F 25.9 °F 29.5 °F
Humidity: 97% 96% 97%
Wind Speed: 4mph 0mph 0.6mph
Wind Gust: 6mph - -
Wind- - East
Pressure: 30.5 in 30.3 in -
Precipitation: 0.02 in    
Historical Graphs
 
 
Tabular Data for January 15, 2022
Time Temperature Dew Point Pressure Wind Wind Speed Wind Gust Humidity Rainfall Rate (Hourly) solar
00:00 30.4 °F 29.3 °F 30.5 in Calm     96% 0 in 0 W/m2
00:05 30.6 °F 29.5 °F 30.5 in Calm     96% 0 in 0 W/m2
00:10 30.6 °F 29.5 °F 30.5 in Calm     96% 0 in 0 W/m2
00:15 30.6 °F 29.5 °F 30.5 in Calm     96% 0 in 0 W/m2
00:20 30.7 °F 29.7 °F 30.5 in Calm     96% 0 in 0 W/m2
00:25 30.7 °F 29.7 °F 30.5 in Calm     96% 0 in 0 W/m2
00:30 30.7 °F 29.7 °F 30.5 in Calm     96% 0 in 0 W/m2
00:35 31.3 °F 30.2 °F 30.5 in Calm     96% 0 in 0 W/m2
00:40 31.5 °F 30.7 °F 30.5 in Calm     97% 0 in 0 W/m2
00:45 31.5 °F 30.7 °F 30.5 in Calm     97% 0 in 0 W/m2
00:50 31.5 °F 30.7 °F 30.5 in Calm     97% 0 in 0 W/m2
00:55 31.5 °F 30.7 °F 30.5 in Calm     97% 0 in 0 W/m2
01:00 31.3 °F 30.6 °F 30.5 in Calm     97% 0 in 0 W/m2
01:05 31.3 °F 30.2 °F 30.5 in Calm     96% 0 in 0 W/m2
01:10 31.1 °F 30 °F 30.5 in Calm     96% 0 in 0 W/m2
01:15 31.1 °F 30 °F 30.5 in Calm     96% 0 in 0 W/m2
01:20 30.9 °F 29.8 °F 30.5 in Calm     96% 0 in 0 W/m2
01:25 30.9 °F 29.8 °F 30.5 in Calm     96% 0 in 0 W/m2
01:30 30.9 °F 29.8 °F 30.5 in Calm     96% 0 in 0 W/m2
01:35 30.9 °F 29.8 °F 30.4 in Calm     96% 0 in 0 W/m2
01:40 30.9 °F 29.8 °F 30.4 in Calm     96% 0 in 0 W/m2
01:45 30.7 °F 29.7 °F 30.4 in Calm     96% 0 in 0 W/m2
01:50 30.6 °F 29.5 °F 30.4 in Calm     96% 0 in 0 W/m2
01:55 30.6 °F 29.5 °F 30.4 in Calm     96% 0 in 0 W/m2
02:00 30.4 °F 29.3 °F 30.4 in Calm     96% 0 in 0 W/m2
02:05 30.2 °F 29.1 °F 30.4 in Calm     96% 0 in 0 W/m2
02:10 30 °F 28.9 °F 30.4 in Calm     96% 0 in 0 W/m2
02:15 29.8 °F 28.8 °F 30.4 in Calm     96% 0 in 0 W/m2
02:20 29.7 °F 28.6 °F 30.4 in Calm     96% 0 in 0 W/m2
02:25 29.7 °F 28.6 °F 30.4 in Calm     96% 0 in 0 W/m2
02:30 29.7 °F 28.6 °F 30.4 in Calm     96% 0 in 0 W/m2
02:35 29.5 °F 28.4 °F 30.4 in Calm     96% 0 in 0 W/m2
02:40 29.5 °F 28.4 °F 30.4 in Calm     96% 0 in 0 W/m2
02:45 29.7 °F 28.6 °F 30.4 in Calm     96% 0 in 0 W/m2
02:50 29.7 °F 28.9 °F 30.4 in Calm     97% 0 in 0 W/m2
02:55 29.7 °F 28.9 °F 30.4 in Calm   2 mph 97% 0 in 0 W/m2
03:00 29.8 °F 29.1 °F 30.4 in Calm     97% 0 in 0 W/m2
03:05 29.7 °F 28.9 °F 30.4 in Calm     97% 0 in 0 W/m2
03:10 29.7 °F 28.9 °F 30.4 in Calm     97% 0 in 0 W/m2
03:15 29.5 °F 28.4 °F 30.4 in Calm     96% 0 in 0 W/m2
03:20 29.5 °F 28.4 °F 30.4 in Calm     96% 0 in 0 W/m2
03:25 29.5 °F 28.4 °F 30.4 in Calm     96% 0 in 0 W/m2
03:30 29.5 °F 28.4 °F 30.4 in Calm     96% 0 in 0 W/m2
03:35 29.5 °F 28.4 °F 30.4 in Calm     96% 0 in 0 W/m2
03:40 29.3 °F 28.2 °F 30.4 in Calm     96% 0 in 0 W/m2
03:45 29.1 °F 28 °F 30.4 in Calm     96% 0 in 0 W/m2
03:50 29.1 °F 28 °F 30.4 in Calm     96% 0 in 0 W/m2
03:55 28.9 °F 27.9 °F 30.4 in Calm     96% 0 in 0 W/m2
04:00 28.9 °F 28.2 °F 30.4 in Calm     97% 0 in 0 W/m2
04:05 28.9 °F 28.2 °F 30.4 in Calm     97% 0 in 0 W/m2
04:10 28.9 °F 27.9 °F 30.4 in Calm     96% 0 in 0 W/m2
04:15 28.8 °F 27.7 °F 30.4 in Calm     96% 0 in 0 W/m2
04:20 28.8 °F 27.7 °F 30.4 in Calm     96% 0 in 0 W/m2
04:25 28.6 °F 27.5 °F 30.4 in Calm     96% 0 in 0 W/m2
04:30 28.6 °F 27.5 °F 30.4 in Calm     96% 0 in 0 W/m2
04:35 28.4 °F 27.3 °F 30.4 in Calm   1 mph 96% 0 in 0 W/m2
04:40 28.2 °F 27.1 °F 30.4 in Calm     96% 0 in 0 W/m2
04:45 28 °F 27 °F 30.4 in ESE 0.9 mph 2 mph 96% 0 in 0 W/m2
04:50 28 °F 27 °F 30.4 in ESE 0.9 mph 2 mph 96% 0 in 0 W/m2
04:55 28 °F 27 °F 30.4 in ESE 0.9 mph 1 mph 96% 0 in 0 W/m2
05:00 27.9 °F 26.8 °F 30.4 in ESE 0.9 mph 2 mph 96% 0 in 0 W/m2
05:05 27.9 °F 26.8 °F 30.4 in ESE 0.9 mph 2 mph 96% 0 in 0 W/m2
05:10 27.9 °F 26.8 °F 30.4 in East 0.9 mph 3 mph 96% 0 in 0 W/m2
05:15 27.9 °F 26.8 °F 30.4 in ESE 0.9 mph 3 mph 96% 0 in 0 W/m2
05:20 27.9 °F 26.8 °F 30.4 in Calm     96% 0 in 0 W/m2
05:25 27.9 °F 26.8 °F 30.4 in Calm   3 mph 96% 0 in 0 W/m2
05:30 27.7 °F 26.6 °F 30.4 in Calm   1 mph 96% 0 in 0 W/m2
05:35 27.7 °F 26.6 °F 30.4 in SE 2 mph 2 mph 96% 0 in 0 W/m2
05:40 27.7 °F 26.6 °F 30.4 in Calm     96% 0 in 0 W/m2
05:45 27.7 °F 26.6 °F 30.4 in Calm     96% 0 in 0 W/m2
05:50 27.5 °F 26.6 °F 30.4 in Calm   2 mph 96% 0 in 0 W/m2
05:55 27.5 °F 26.6 °F 30.4 in Calm     96% 0 in 0 W/m2
06:00 27.5 °F 26.8 °F 30.4 in Calm   2 mph 97% 0 in 0 W/m2
06:05 27.3 °F 26.6 °F 30.4 in Calm     97% 0 in 0 W/m2
06:10 27.3 °F 26.6 °F 30.4 in East 0.9 mph 2 mph 97% 0 in 0 W/m2
06:15 27.3 °F 26.4 °F 30.4 in East 0.9 mph 2 mph 96% 0 in 0 W/m2
06:20 27.1 °F 26.2 °F 30.4 in Calm   1 mph 96% 0 in 0 W/m2
06:25 27.1 °F 26.2 °F 30.4 in Calm   1 mph 96% 0 in 0 W/m2
06:30 27 °F 26.1 °F 30.4 in East 2 mph 3 mph 96% 0 in 0 W/m2
06:35 27 °F 26.1 °F 30.4 in Calm     96% 0 in 0 W/m2
06:40 27 °F 26.1 °F 30.4 in ESE 0.9 mph 1 mph 96% 0 in 0 W/m2
06:45 27 °F 26.1 °F 30.4 in Calm     96% 0 in 0 W/m2
06:50 27 °F 26.1 °F 30.4 in Calm     96% 0 in 0 W/m2
06:55 26.8 °F 25.9 °F 30.4 in Calm     96% 0 in 0 W/m2
07:00 26.8 °F 25.9 °F 30.4 in Calm     96% 0 in 0 W/m2
07:05 26.8 °F 25.9 °F 30.4 in Calm     96% 0 in 0 W/m2
07:10 26.8 °F 25.9 °F 30.4 in ESE 0.9 mph 1 mph 96% 0 in 0 W/m2
07:15 27 °F 26.1 °F 30.4 in Calm   2 mph 96% 0 in 0 W/m2
07:20 27 °F 26.1 °F 30.4 in Calm     96% 0 in 0 W/m2
07:25 27 °F 26.2 °F 30.4 in Calm     97% 0 in 0 W/m2
07:30 27.1 °F 26.4 °F 30.4 in Calm     97% 0 in 0 W/m2
07:35 27.1 °F 26.4 °F 30.4 in East 0.9 mph 2 mph 97% 0 in 0 W/m2
07:40 27.1 °F 26.4 °F 30.4 in Calm   2 mph 97% 0 in 0 W/m2
07:45 27.1 °F 26.4 °F 30.4 in Calm   1 mph 97% 0 in 0 W/m2
07:50 27 °F 26.2 °F 30.4 in NE 2 mph 3 mph 97% 0 in 0 W/m2
07:55 27 °F 26.2 °F 30.4 in Calm   1 mph 97% 0 in 0 W/m2
08:00 27.1 °F 26.4 °F 30.4 in ESE 0.9 mph 3 mph 97% 0 in 0 W/m2
08:05 27 °F 26.2 °F 30.4 in Calm   1 mph 97% 0 in 0 W/m2
08:11 27 °F 26.2 °F 30.4 in Calm     97% 0 in 0 W/m2
08:16 27 °F 26.2 °F 30.4 in Calm     97% 0 in 0 W/m2
08:21 27.1 °F 26.4 °F 30.4 in NE 2 mph 2 mph 97% 0 in 0 W/m2
08:26 27.1 °F 26.4 °F 30.4 in Calm   2 mph 97% 0 in 0 W/m2
08:31 27.1 °F 26.4 °F 30.4 in Calm   1 mph 97% 0 in 0 W/m2
08:36 27.1 °F 26.4 °F 30.4 in Calm   2 mph 97% 0 in 0 W/m2
08:41 27.1 °F 26.4 °F 30.4 in Calm   2 mph 97% 0 in 5 W/m2
08:46 27.3 °F 26.6 °F 30.4 in NW 0.9 mph 2 mph 97% 0 in 7 W/m2
08:51 27.3 °F 26.6 °F 30.4 in Calm   1 mph 97% 0 in 9 W/m2
08:56 27.5 °F 26.8 °F 30.4 in NNE 0.9 mph 4 mph 97% 0 in 11 W/m2
09:01 27.7 °F 27 °F 30.4 in NNW 0.9 mph 1 mph 97% 0 in 12 W/m2
09:06 27.7 °F 27 °F 30.4 in Calm   3 mph 97% 0 in 16 W/m2
09:11 27.7 °F 27 °F 30.4 in Calm     97% 0 in 18 W/m2
09:16 27.9 °F 27.1 °F 30.4 in Calm   2 mph 97% 0 in 19 W/m2
09:21 27.9 °F 27.1 °F 30.4 in Calm   1 mph 97% 0 in 25 W/m2
09:26 28 °F 27.3 °F 30.4 in East 2.9 mph 4 mph 97% 0 in 19 W/m2
09:31 28 °F 27.3 °F 30.4 in Calm   2 mph 97% 0 in 25 W/m2
09:36 28.2 °F 27.5 °F 30.4 in Calm   1 mph 97% 0 in 26 W/m2
09:41 28.4 °F 27.7 °F 30.4 in Calm   1 mph 97% 0 in 26 W/m2
09:46 28.6 °F 27.9 °F 30.4 in North 0.9 mph 2 mph 97% 0 in 33 W/m2
09:51 28.6 °F 27.9 °F 30.4 in Calm   1 mph 97% 0 in 37 W/m2
09:56 28.8 °F 28 °F 30.4 in Calm     97% 0 in 44 W/m2
10:01 28.8 °F 28 °F 30.4 in Calm     97% 0 in 49 W/m2
10:06 28.9 °F 28.2 °F 30.4 in Calm   1 mph 97% 0 in 46 W/m2
10:11 28.9 °F 28.2 °F 30.4 in North 0.9 mph 1 mph 97% 0 in 53 W/m2
10:16 29.1 °F 28.4 °F 30.4 in East 0.9 mph 3 mph 97% 0 in 46 W/m2
10:21 29.1 °F 28.4 °F 30.4 in ENE 2 mph 2 mph 97% 0 in 49 W/m2
10:26 29.1 °F 28.4 °F 30.4 in Calm   3 mph 97% 0 in 62 W/m2
10:31 29.3 °F 28.6 °F 30.4 in ESE 2 mph 2 mph 97% 0 in 56 W/m2
10:36 29.5 °F 28.8 °F 30.4 in ENE 0.9 mph 2 mph 97% 0 in 62 W/m2
10:41 29.7 °F 28.9 °F 30.4 in ENE 0.9 mph 1 mph 97% 0 in 67 W/m2
10:46 29.7 °F 28.9 °F 30.4 in ENE 0.9 mph 2 mph 97% 0 in 72 W/m2
10:51 29.8 °F 29.1 °F 30.4 in Calm   2 mph 97% 0 in 88 W/m2
10:56 29.8 °F 29.1 °F 30.4 in Calm     97% 0 in 81 W/m2
11:01 30 °F 29.3 °F 30.4 in Calm   1 mph 97% 0 in 81 W/m2
11:06 30.2 °F 29.5 °F 30.4 in Calm   1 mph 97% 0 in 100 W/m2
11:11 30.4 °F 29.7 °F 30.4 in ENE 2 mph 2 mph 97% 0 in 97 W/m2
11:16 30.4 °F 29.7 °F 30.4 in Calm   2 mph 97% 0 in 86 W/m2
11:21 30.4 °F 29.7 °F 30.4 in East 0.9 mph 2 mph 97% 0 in 86 W/m2
11:26 30.4 °F 29.7 °F 30.4 in Calm   3 mph 97% 0 in 74 W/m2
11:31 30.6 °F 29.8 °F 30.4 in East 0.9 mph 2 mph 97% 0 in 70 W/m2
11:36 30.6 °F 29.8 °F 30.4 in Calm   2 mph 97% 0 in 93 W/m2
11:41 30.6 °F 29.8 °F 30.4 in ESE 2 mph 2 mph 97% 0 in 74 W/m2
11:46 30.6 °F 29.8 °F 30.4 in ESE 2 mph 3 mph 97% 0 in 93 W/m2
11:51 30.6 °F 29.8 °F 30.4 in ESE 0.9 mph 2 mph 97% 0.02 in 83 W/m2
11:56 30.6 °F 29.8 °F 30.4 in ESE 0.9 mph 2 mph 97% 0.02 in 83 W/m2
12:01 30.6 °F 29.8 °F 30.4 in ENE 2 mph 2 mph 97% 0.02 in 77 W/m2
12:06 30.6 °F 29.8 °F 30.4 in East 0.9 mph 2 mph 97% 0.02 in 77 W/m2
12:11 30.7 °F 30 °F 30.4 in SE 2 mph 2 mph 97% 0.02 in 88 W/m2
12:16 30.7 °F 30 °F 30.4 in East 2 mph 2 mph 97% 0.02 in 102 W/m2
12:21 30.7 °F 30 °F 30.4 in Calm   2 mph 97% 0.02 in 77 W/m2
12:26 30.7 °F 30 °F 30.4 in East 0.9 mph 3 mph 97% 0.02 in 111 W/m2
12:31 30.7 °F 30 °F 30.4 in ENE 0.9 mph 4 mph 97% 0.02 in 88 W/m2
12:36 30.9 °F 30.2 °F 30.4 in Calm   2 mph 97% 0.02 in 107 W/m2
12:41 30.9 °F 30.2 °F 30.4 in East 2.9 mph 4 mph 97% 0.02 in 95 W/m2
12:46 31.1 °F 30.4 °F 30.4 in NE 0.9 mph 2 mph 97% 0.02 in 118 W/m2
12:51 31.1 °F 30.4 °F 30.4 in East 2 mph 2 mph 97% 0 in 128 W/m2
12:56 31.3 °F 30.6 °F 30.4 in Calm   3 mph 97% 0 in 100 W/m2
13:01 31.3 °F 30.6 °F 30.4 in ESE 2.9 mph 4 mph 97% 0 in 114 W/m2
13:06 31.5 °F 30.7 °F 30.3 in ENE 2 mph 6 mph 97% 0 in 100 W/m2
13:11 31.5 °F 30.7 °F 30.3 in ESE 2 mph 4 mph 97% 0 in 83 W/m2
13:16 31.5 °F 30.7 °F 30.3 in East 0.9 mph 2 mph 97% 0 in 90 W/m2
13:21 31.5 °F 30.7 °F 30.3 in Calm   4 mph 97% 0 in 90 W/m2
13:26 31.5 °F 30.7 °F 30.3 in East 0.9 mph 3 mph 97% 0 in 91 W/m2
13:31 31.6 °F 30.9 °F 30.3 in East 0.9 mph 3 mph 97% 0 in 90 W/m2
13:36 31.6 °F 30.9 °F 30.3 in ENE 0.9 mph 2 mph 97% 0 in 95 W/m2
13:41 31.6 °F 30.9 °F 30.3 in ENE 0.9 mph 3 mph 97% 0 in 84 W/m2
13:46 31.6 °F 30.9 °F 30.3 in ENE 0.9 mph 3 mph 97% 0 in 79 W/m2
13:51 31.6 °F 30.9 °F 30.3 in ENE 0.9 mph 1 mph 97% 0 in 95 W/m2
13:56 31.6 °F 30.9 °F 30.3 in ENE 0.9 mph 5 mph 97% 0 in 91 W/m2
14:01 31.6 °F 30.9 °F 30.3 in Calm   2 mph 97% 0 in 77 W/m2
14:06 31.6 °F 30.9 °F 30.3 in ENE 2.9 mph 4 mph 97% 0 in 79 W/m2
14:11 31.6 °F 30.9 °F 30.3 in NE 2 mph 4 mph 97% 0 in 84 W/m2
14:16 31.6 °F 30.9 °F 30.3 in NE 2 mph 2 mph 97% 0 in 69 W/m2
14:21 31.8 °F 31.1 °F 30.3 in Calm   1 mph 97% 0 in 72 W/m2
14:26 32 °F 31.3 °F 30.3 in East 2 mph 2 mph 97% 0 in 90 W/m2
14:31 32.2 °F 31.5 °F 30.3 in Calm   4 mph 97% 0 in 109 W/m2
14:36 32.2 °F 31.5 °F 30.3 in Calm   2 mph 97% 0 in 90 W/m2
14:41 32.2 °F 31.5 °F 30.3 in Calm   1 mph 97% 0 in 77 W/m2
14:46 32.2 °F 31.5 °F 30.3 in Calm   1 mph 97% 0 in 69 W/m2
14:51 32.2 °F 31.5 °F 30.3 in Calm     97% 0 in 53 W/m2
14:56 32.4 °F 31.6 °F 30.3 in NE 2 mph 2 mph 97% 0 in 58 W/m2
15:01 32.2 °F 31.5 °F 30.3 in Calm   2 mph 97% 0 in 53 W/m2
15:06 32.2 °F 31.5 °F 30.3 in Calm     97% 0 in 42 W/m2
15:11 32.2 °F 31.5 °F 30.3 in Calm   2 mph 97% 0 in 47 W/m2
15:16 32.2 °F 31.5 °F 30.3 in Calm   1 mph 97% 0 in 51 W/m2
15:21 32.4 °F 31.6 °F 30.3 in Calm   2 mph 97% 0 in 42 W/m2
15:26 32.4 °F 31.6 °F 30.3 in ENE 2 mph 3 mph 97% 0 in 46 W/m2
15:31 32.2 °F 31.5 °F 30.3 in Calm     97% 0 in 37 W/m2
15:36 32.4 °F 31.6 °F 30.3 in Calm   3 mph 97% 0 in 33 W/m2
15:41 32.2 °F 31.5 °F 30.3 in Calm   1 mph 97% 0 in 39 W/m2
15:47 32.4 °F 31.6 °F 30.3 in Calm     97% 0 in 26 W/m2
15:52 32.4 °F 31.6 °F 30.3 in Calm     97% 0 in 30 W/m2
15:57 32.4 °F 31.6 °F 30.3 in NNE 0.9 mph 2 mph 97% 0 in 28 W/m2
16:02 32.4 °F 31.6 °F 30.3 in Calm     97% 0 in 18 W/m2
16:07 32.4 °F 31.6 °F 30.3 in Calm   2 mph 97% 0 in 21 W/m2
16:12 32.4 °F 31.6 °F 30.3 in Calm     97% 0 in 16 W/m2
16:17 32.4 °F 31.6 °F 30.3 in Calm   1 mph 97% 0 in 14 W/m2
16:22 32.4 °F 31.6 °F 30.3 in Calm     97% 0 in 18 W/m2
16:27 32.4 °F 31.6 °F 30.3 in Calm     97% 0 in 18 W/m2
16:32 32.4 °F 31.6 °F 30.3 in Calm     97% 0 in 11 W/m2
16:37 32.4 °F 31.6 °F 30.3 in Calm     97% 0 in 11 W/m2
16:42 32.4 °F 31.6 °F 30.3 in Calm     97% 0 in 9 W/m2
16:47 32.4 °F 31.3 °F 30.3 in ENE 0.9 mph 3 mph 96% 0 in 7 W/m2
16:52 32.4 °F 31.3 °F 30.3 in Calm   2 mph 96% 0 in 5 W/m2
16:57 32.4 °F 31.3 °F 30.3 in East 2 mph 3 mph 96% 0 in 0 W/m2
17:02 32.4 °F 31.3 °F 30.3 in Calm   3 mph 96% 0 in 0 W/m2
17:07 32.4 °F 31.3 °F 30.3 in NE 2 mph 2 mph 96% 0 in 0 W/m2
17:12 32.4 °F 31.3 °F 30.3 in NE 0.9 mph 3 mph 96% 0 in 0 W/m2
17:17 32.4 °F 31.3 °F 30.3 in Calm   2 mph 96% 0 in 0 W/m2
17:22 32.2 °F 31.1 °F 30.3 in East 0.9 mph 2 mph 96% 0 in 0 W/m2
17:27 32.4 °F 31.3 °F 30.3 in East 2 mph 4 mph 96% 0 in 0 W/m2
17:32 32.4 °F 31.3 °F 30.3 in Calm   2 mph 96% 0 in 0 W/m2
17:37 32.4 °F 31.3 °F 30.3 in ENE 0.9 mph 4 mph 96% 0 in 0 W/m2
17:42 32.4 °F 31.3 °F 30.3 in ENE 2 mph 3 mph 96% 0 in 0 W/m2
17:47 32.4 °F 31.3 °F 30.3 in Calm   4 mph 96% 0 in 0 W/m2
17:52 32.4 °F 31.3 °F 30.3 in ENE 0.9 mph 2 mph 96% 0 in 0 W/m2
17:57 32.2 °F 31.1 °F 30.3 in East 0.9 mph 3 mph 96% 0 in 0 W/m2
18:02 32.2 °F 31.1 °F 30.3 in Calm   2 mph 96% 0 in 0 W/m2
18:07 32.2 °F 31.1 °F 30.3 in East 0.9 mph 3 mph 96% 0 in 0 W/m2
18:12 32.2 °F 31.1 °F 30.3 in SE 2 mph 4 mph 96% 0 in 0 W/m2
18:17 32.2 °F 31.1 °F 30.3 in East 0.9 mph 2 mph 96% 0 in 0 W/m2
18:22 32.2 °F 31.1 °F 30.3 in ESE 2 mph 2 mph 96% 0 in 0 W/m2
18:27 32 °F 30.9 °F 30.3 in SE 2 mph 3 mph 96% 0 in 0 W/m2
18:32 31.8 °F 30.7 °F 30.3 in ESE 0.9 mph 3 mph 96% 0 in 0 W/m2
18:37 31.8 °F 31.1 °F 30.3 in Calm   4 mph 97% 0 in 0 W/m2
18:42 31.8 °F 30.7 °F 30.3 in ENE 0.9 mph 3 mph 96% 0 in 0 W/m2
18:47 31.8 °F 30.7 °F 30.3 in Calm   4 mph 96% 0 in 0 W/m2
18:52 31.8 °F 30.7 °F 30.3 in ESE 0.9 mph 3 mph 96% 0 in 0 W/m2
18:57 31.6 °F 30.6 °F 30.3 in Calm     96% 0 in 0 W/m2
19:02 31.6 °F 30.6 °F 30.3 in Calm   3 mph 96% 0 in 0 W/m2
19:07 31.6 °F 30.6 °F 30.3 in NE 0.9 mph 2 mph 96% 0 in 0 W/m2
19:12 31.6 °F 30.6 °F 30.3 in ENE 2.9 mph 3 mph 96% 0 in 0 W/m2
19:17 31.6 °F 30.6 °F 30.3 in Calm   2 mph 96% 0 in 0 W/m2
19:22 31.6 °F 30.6 °F 30.3 in East 2.9 mph 3 mph 96% 0 in 0 W/m2
19:27 31.6 °F 30.6 °F 30.3 in East 0.9 mph 1 mph 96% 0 in 0 W/m2
19:32 31.6 °F 30.6 °F 30.3 in East 0.9 mph 2 mph 96% 0 in 0 W/m2
19:38 31.6 °F 30.6 °F 30.3 in Calm   2 mph 96% 0 in 0 W/m2
19:43 31.6 °F 30.6 °F 30.3 in ESE 0.9 mph 2 mph 96% 0 in 0 W/m2
19:48 31.6 °F 30.6 °F 30.3 in Calm   2 mph 96% 0 in 0 W/m2
19:53 31.6 °F 30.6 °F 30.3 in Calm   2 mph 96% 0 in 0 W/m2
19:58 31.6 °F 30.9 °F 30.3 in ESE 0.9 mph 2 mph 97% 0 in 0 W/m2
20:03 31.6 °F 30.9 °F 30.3 in Calm   2 mph 97% 0 in 0 W/m2
20:08 31.6 °F 30.9 °F 30.3 in Calm   1 mph 97% 0 in 0 W/m2
20:13 31.8 °F 31.1 °F 30.3 in Calm   2 mph 97% 0 in 0 W/m2
20:18 31.8 °F 31.1 °F 30.3 in Calm     97% 0 in 0 W/m2
20:23 31.8 °F 31.1 °F 30.3 in Calm   1 mph 97% 0 in 0 W/m2
20:28 31.8 °F 31.1 °F 30.3 in Calm   2 mph 97% 0 in 0 W/m2
20:33 31.8 °F 31.1 °F 30.3 in ESE 2 mph 2 mph 97% 0 in 0 W/m2
20:38 31.8 °F 31.1 °F 30.3 in SE 0.9 mph 4 mph 97% 0 in 0 W/m2
20:43 31.8 °F 31.1 °F 30.3 in Calm   1 mph 97% 0 in 0 W/m2
20:48 31.8 °F 31.1 °F 30.3 in ESE 2 mph 2 mph 97% 0 in 0 W/m2
20:53 31.8 °F 31.1 °F 30.3 in Calm   1 mph 97% 0 in 0 W/m2
20:58 31.8 °F 31.1 °F 30.3 in East 0.9 mph 4 mph 97% 0 in 0 W/m2
21:03 32 °F 31.3 °F 30.3 in East 2 mph 2 mph 97% 0 in 0 W/m2
21:08 32 °F 31.3 °F 30.3 in SE 0.9 mph 1 mph 97% 0 in 0 W/m2
21:13 32 °F 31.3 °F 30.3 in Calm   1 mph 97% 0 in 0 W/m2
21:18 32 °F 31.3 °F 30.3 in Calm   2 mph 97% 0 in 0 W/m2
21:23 32 °F 31.3 °F 30.3 in Calm   2 mph 97% 0 in 0 W/m2
21:28 31.8 °F 31.1 °F 30.3 in ESE 0.9 mph 2 mph 97% 0 in 0 W/m2
21:33 31.8 °F 31.1 °F 30.3 in ESE 0.9 mph 2 mph 97% 0 in 0 W/m2
21:38 31.8 °F 31.1 °F 30.3 in SE 2.9 mph 3 mph 97% 0 in 0 W/m2
21:43 31.8 °F 31.1 °F 30.3 in ESE 2 mph 3 mph 97% 0 in 0 W/m2
21:48 31.8 °F 31.1 °F 30.3 in East 0.9 mph 1 mph 97% 0 in 0 W/m2
21:53 31.8 °F 31.1 °F 30.3 in ESE 2 mph 6 mph 97% 0 in 0 W/m2
21:58 31.8 °F 31.1 °F 30.3 in ESE 0.9 mph 2 mph 97% 0 in 0 W/m2
22:03 31.8 °F 31.1 °F 30.3 in ESE 2 mph 4 mph 97% 0 in 0 W/m2
22:08 31.8 °F 31.1 °F 30.3 in ESE 2.9 mph 3 mph 97% 0 in 0 W/m2
22:13 31.8 °F 30.7 °F 30.3 in ESE 2 mph 4 mph 96% 0 in 0 W/m2
22:18 31.8 °F 30.7 °F 30.3 in SE 0.9 mph 4 mph 96% 0 in 0 W/m2
22:23 31.8 °F 30.7 °F 30.3 in ESE 2 mph 4 mph 96% 0 in 0 W/m2
22:28 31.6 °F 30.6 °F 30.3 in SE 0.9 mph 3 mph 96% 0 in 0 W/m2
22:33 31.6 °F 30.6 °F 30.3 in Calm   4 mph 96% 0 in 0 W/m2
22:38 31.5 °F 30.7 °F 30.3 in Calm   2 mph 97% 0 in 0 W/m2
22:43 31.5 °F 30.4 °F 30.3 in SE 0.9 mph 4 mph 96% 0 in 0 W/m2
22:48 31.5 °F 30.4 °F 30.3 in East 0.9 mph 3 mph 96% 0 in 0 W/m2
22:53 31.3 °F 30.2 °F 30.3 in Calm   2 mph 96% 0 in 0 W/m2
22:58 31.3 °F 30.2 °F 30.3 in Calm   2 mph 96% 0 in 0 W/m2
23:03 31.3 °F 30.2 °F 30.3 in SE 2 mph 3 mph 96% 0 in 0 W/m2
23:08 31.3 °F 30.2 °F 30.3 in SE 2 mph 4 mph 96% 0 in 0 W/m2
23:13 31.3 °F 30.2 °F 30.3 in ESE 0.9 mph 2 mph 96% 0 in 0 W/m2
23:18 31.3 °F 30.2 °F 30.3 in East 2 mph 5 mph 96% 0 in 0 W/m2
23:23 31.3 °F 30.2 °F 30.3 in ESE 0.9 mph 2 mph 96% 0 in 0 W/m2
23:28 31.3 °F 30.2 °F 30.3 in ESE 2 mph 4 mph 96% 0 in 0 W/m2
23:33 31.1 °F 30 °F 30.3 in ESE 0.9 mph 2 mph 96% 0 in 0 W/m2
23:38 31.1 °F 30 °F 30.3 in ESE 2.9 mph 3 mph 96% 0 in 0 W/m2
23:43 31.1 °F 30 °F 30.3 in East 4 mph 5 mph 96% 0 in 0 W/m2
23:48 30.9 °F 29.8 °F 30.3 in SE 2 mph 3 mph 96% 0 in 0 W/m2
23:53 30.9 °F 29.8 °F 30.3 in ESE 2.9 mph 3 mph 96% 0 in 0 W/m2
23:58 30.7 °F 29.7 °F 30.3 in ESE 0.9 mph 3 mph 96% 0 in 0 W/m2
Juneau County Weather
Compliments of Weather Underground - 4 mb